MBR | MBRSubmissionSummary
Emblem for the Federal Energy Regulatory Commission

MBR Portal

Federal Energy Regulatory Commission

FERC.GOV    LOGIN    
Home
Create GID
Create Gen Assets
Submit MBR XML
MBR Reports
Documents and Links

Submission Summary











 

Submission ID Submission
Date
Submission
Status Name
File Name Submitter Filed Date Submission
Source Name
CID Organization
Name
Download XML
1277554 1/25/2022 Rejected ESG_Upload-13.xml Matthew T. Rick 1/25/2022 eFiling ESG_Upload-13.xml
1277551 1/25/2022 Final mbr-minmial.xml Chris Haase 1/25/2022 eFiling mbr-minmial.xml
1277549 1/25/2022 Final XML_110_20220125094313.xml Robert E. Gardinor 1/25/2022 eFiling C001197 PSEG Nuclear LLC XML_110_20220125094313.xml
1277535 1/25/2022 Rejected mbrxml_C001445_1643127984651.xml Jennifer C Mansh 1/25/2022 eFiling mbrxml_C001445_1643127984651.xml
1277533 1/25/2022 Final XML_NIPSC-TEST.xml Miles H. Kiger 1/25/2022 eFiling XML_NIPSC-TEST.xml
1277531 1/25/2022 Rejected XML_138_20220125092130.xml Elizabeth Tillotson 1/25/2022 eFiling XML_138_20220125092130.xml
1277514 1/25/2022 Final Jayhawk.xml Beth Martin 1/25/2022 eFiling Jayhawk.xml
1277513 1/25/2022 Final WPS.xml Beth Martin 1/25/2022 eFiling WPS.xml
1277506 1/25/2022 Final ESG_Upload-14.xml Matthew T. Rick 1/25/2022 eFiling ESG_Upload-14.xml
1277505 1/25/2022 Final WEPCO.xml Beth Martin 1/25/2022 eFiling WEPCO.xml
1277503 1/25/2022 Rejected Test-228_Filing_Entity_01252203.xml Christopher J. Polito 1/25/2022 eFiling Test-228_Filing_Entity_01252203.xml
1277497 1/25/2022 Final XML_361_20220125085826.xml Marya Pirak 1/25/2022 eFiling XML_361_20220125085826.xml
1277486 1/25/2022 Rejected XML_353_20220125085301.xml Marya Pirak 1/25/2022 eFiling XML_353_20220125085301.xml
1277484 1/25/2022 Final XML_363_20220125085204.xml Marya Pirak 1/25/2022 eFiling XML_363_20220125085204.xml
1277476 1/25/2022 Final XML_362_20220125084907.xml Marya Pirak 1/25/2022 eFiling XML_362_20220125084907.xml
1277474 1/25/2022 Rejected XML_361_20220125084701.xml Marya Pirak 1/25/2022 eFiling XML_361_20220125084701.xml
1277472 1/25/2022 Final XML_359_20220125084537.xml Marya Pirak 1/25/2022 eFiling XML_359_20220125084537.xml
1277457 1/25/2022 Rejected ESG_Upload-13.xml Matthew T. Rick 1/25/2022 eFiling ESG_Upload-13.xml
1277444 1/25/2022 Rejected ESG_Upload-14.xml Matthew T. Rick 1/25/2022 eFiling ESG_Upload-14.xml
1277440 1/25/2022 Final Test-160_Filing_Entity_01252255.xml Stephanie Jones 1/25/2022 eFiling Test-160_Filing_Entity_01252255.xml
1277438 1/25/2022 Rejected MBR_Baseline_Submission_SociVolta.xml Stuart Casgrain 1/25/2022 eFiling MBR_Baseline_Submission_SociVolta.xml
1277434 1/25/2022 Final EnelCoveFortLLC_20220125_094124.xml Tommaso Giulianelli 1/25/2022 eFiling C003898 Ormat Cove Fort LLC EnelCoveFortLLC_20220125_094124.xml
1277433 1/25/2022 Final EGPStillwaterSolarLLC_20220125_094120.xml Tommaso Giulianelli 1/25/2022 eFiling C002807 Ormat Stillwater Solar LLC EGPStillwaterSolarLLC_20220125_094120.xml
1277431 1/25/2022 Final ChisholmViewWindProjectLLC_20220125_094116.xml Tommaso Giulianelli 1/25/2022 eFiling C003149 Chisholm View Wind Project, LLC ChisholmViewWindProjectLLC_20220125_094116.xml
1277430 1/25/2022 Final RockhavenWindProjectLLC_20220125_094112.xml Tommaso Giulianelli 1/25/2022 eFiling C010986 Rockhaven Wind Project, LLC RockhavenWindProjectLLC_20220125_094112.xml
1277428 1/25/2022 Final DriftSandWindProjectLLC_20220125_094108.xml Tommaso Giulianelli 1/25/2022 eFiling C005297 Drift Sand Wind Project, LLC DriftSandWindProjectLLC_20220125_094108.xml
1277425 1/25/2022 Final CimarronBendWindProjectILLC_20220125_094104.xml Tommaso Giulianelli 1/25/2022 eFiling C005394 Cimarron Bend Wind Project I, LLC CimarronBendWindProjectILLC_20220125_094104.xml
1277424 1/25/2022 Final ChisholmViewWindProjectIILLC_20220125_094100.xml Tommaso Giulianelli 1/25/2022 eFiling C005395 Chisholm View Wind Project II, LLC ChisholmViewWindProjectIILLC_20220125_094100.xml
1277423 1/25/2022 Final ESG_Upload-15.xml Matthew T. Rick 1/25/2022 eFiling ESG_Upload-15.xml
1277421 1/25/2022 Final EGPStillwaterSolarPVIILLC_20220125_094055.xml Tommaso Giulianelli 1/25/2022 eFiling C008779 Ormat Stillwater Solar PV II LLC EGPStillwaterSolarPVIILLC_20220125_094055.xml
1277420 1/25/2022 Final WhitneyHillWindProjectLLC_20220125_093740.xml Tommaso Giulianelli 1/25/2022 eFiling C010357 Whitney Hill Wind Power, LLC WhitneyHillWindProjectLLC_20220125_093740.xml
1277418 1/25/2022 Final CimarronBendWindProjectIIILLC_20220125_093733.xml Tommaso Giulianelli 1/25/2022 eFiling C010593 Cimarron Bend Wind Project III, LLC CimarronBendWindProjectIIILLC_20220125_093733.xml
1277416 1/25/2022 Final EnelTradingNorthAmericaLLC_20220125_094306.xml Tommaso Giulianelli 1/25/2022 eFiling C005529 Enel Trading North America, LLC EnelTradingNorthAmericaLLC_20220125_094306.xml
1277414 1/25/2022 Final AuroraWindProjectLLC_20220125_093728.xml Tommaso Giulianelli 1/25/2022 eFiling C010592 Aurora Wind Project, LLC AuroraWindProjectLLC_20220125_093728.xml
1277413 1/25/2022 Rejected ESG_Upload-15.xml Matthew T. Rick 1/25/2022 eFiling ESG_Upload-15.xml
1277412 1/25/2022 Final BuffaloDunesWindProjectLLC_20220125_093723.xml Tommaso Giulianelli 1/25/2022 eFiling C003725 Buffalo Dunes Wind Project, LLC BuffaloDunesWindProjectLLC_20220125_093723.xml
1277408 1/25/2022 Rejected WhiteCloudWindProjectLLC_20220125_093712.xml Tommaso Giulianelli 1/25/2022 eFiling WhiteCloudWindProjectLLC_20220125_093712.xml
1277407 1/25/2022 Rejected WhiteCloudWindProjectLLC_20220125_093712.xml Tommaso Giulianelli 1/25/2022 eFiling WhiteCloudWindProjectLLC_20220125_093712.xml
1277406 1/25/2022 Rejected submission.xml John L. Criner 1/25/2022 eFiling submission.xml
1277405 1/25/2022 Rejected WhiteCloudWindProjectLLC_20220125_093712.xml Tommaso Giulianelli 1/25/2022 eFiling WhiteCloudWindProjectLLC_20220125_093712.xml
1277404 1/25/2022 Rejected WhiteCloudWindProjectLLC_20220125_093712.xml Tommaso Giulianelli 1/25/2022 eFiling WhiteCloudWindProjectLLC_20220125_093712.xml
1277403 1/25/2022 Final WhiteCloudWindProjectLLC_20220125_093712.xml Tommaso Giulianelli 1/25/2022 eFiling C010499 White Cloud Wind Project, LLC WhiteCloudWindProjectLLC_20220125_093712.xml
1277402 1/25/2022 Final SmokyHillsWindFarmLLC_20220125_093348.xml Tommaso Giulianelli 1/25/2022 eFiling C002610 Smoky Hills Wind Farm, LLC SmokyHillsWindFarmLLC_20220125_093348.xml
1277401 1/25/2022 Final RockyRidgeWindProjectLLC_20220125_093336.xml Tommaso Giulianelli 1/25/2022 eFiling C002926 Rocky Ridge Wind Project, LLC RockyRidgeWindProjectLLC_20220125_093336.xml
1277399 1/25/2022 Final OsageWindLLC_20220125_093330.xml Tommaso Giulianelli 1/25/2022 eFiling C002465 Osage Wind, LLC OsageWindLLC_20220125_093330.xml
1277398 1/25/2022 Final SmokyHillsWindProjectIILLC_20220125_093325.xml Tommaso Giulianelli 1/25/2022 eFiling C002609 Smoky Hills Wind Project II, LLC SmokyHillsWindProjectIILLC_20220125_093325.xml
1277397 1/25/2022 Final EnelGreenPowerRattlesnakeCreekWindProjectLLC_20220125_093315.xml Tommaso Giulianelli 1/25/2022 eFiling C009059 Enel Green Power Rattlesnake Creek Wind EnelGreenPowerRattlesnakeCreekWindProjectLLC_20220125_093315.xml
1277396 1/25/2022 Final CanastotaWindpowerLLC_20220125_093150.xml Tommaso Giulianelli 1/25/2022 eFiling C002611 Canastota Windpower, LLC CanastotaWindpowerLLC_20220125_093150.xml
1277394 1/25/2022 Final EnelGreenPowerHilltopperWindLLC_20220125_093050.xml Tommaso Giulianelli 1/25/2022 eFiling C009058 Enel Green Power Hilltopper Wind, LLC EnelGreenPowerHilltopperWindLLC_20220125_093050.xml
1277391 1/25/2022 Final EnelGreenPowerDiamondVistaWindProjectLLC_20220125_092952.xml Tommaso Giulianelli 1/25/2022 eFiling C009061 Enel Green Power Diamond Vista Wind Proj EnelGreenPowerDiamondVistaWindProjectLLC_20220125_092952.xml

Security and Privacy Statement
For any issues regarding MBR System, please contact MBR support   Please include a current e-mail address. Last Modified: 9/2/2026 6:00:00 PM      ver.1.61

This site contains information collections that are subject to the Paperwork Reduction Act (PRA). Among other things, the PRA requires FERC to provide you with an estimate of the average burden of completing the information on this site. Comments regarding the burden estimate or any other aspect of these forms can be directed to FERC's Information Collection Branch at DataClearance@ferc.gov.
In addition, you are not required to respond to any collection of information unless it displays a currently valid Office of Management and Budget (OMB) control number. FERC provides the OMB Control Numbers of the information collections on this site at www.ferc.gov/information-collections.